Time;durP1;ratioP1;P1;durP2;ratioP2;P2;SDS_P1;SDS_P2;PMS_P1;PMS_P2;Temp;Humidity;BMP_temperature;BMP_pressure;BME280_temperature;BME280_humidity;BME280_pressure;Samples;Min_cycle;Max_cycle;Signal;HPM_P1;HPM_P2
2021/08/25 00:00:01;;;;;;;25.23;14.98;;;;;;;16.94;80.07;100885.78;1763260;80;20952;-71
2021/08/25 00:02:28;;;;;;;25.50;15.93;;;;;;;16.93;79.96;100889.88;1763414;80;21383;-69
2021/08/25 00:04:55;;;;;;;21.10;14.60;;;;;;;16.90;80.00;100878.22;1763292;81;20905;-70
2021/08/25 00:07:23;;;;;;;20.90;13.88;;;;;;;16.86;80.11;100884.24;1763432;80;21485;-69
2021/08/25 00:09:49;;;;;;;21.80;14.68;;;;;;;16.84;80.14;100880.87;1763149;81;20956;-70
2021/08/25 00:12:18;;;;;;;19.30;13.83;;;;;;;16.83;80.40;100877.88;1763158;80;20932;-70
2021/08/25 00:14:44;;;;;;;18.40;14.35;;;;;;;16.84;80.58;100880.05;1763225;80;20901;-68
2021/08/25 00:17:12;;;;;;;21.23;13.85;;;;;;;16.85;80.73;100877.73;1763292;81;20980;-70
2021/08/25 00:19:38;;;;;;;21.65;13.72;;;;;;;16.87;80.55;100877.13;1763321;80;22246;-70
2021/08/25 00:22:05;;;;;;;20.30;13.08;;;;;;;16.87;80.69;100874.48;1763071;80;20928;-70
2021/08/25 00:24:32;;;;;;;17.98;12.63;;;;;;;16.86;80.77;100873.64;1737476;81;20976;-70
2021/08/25 00:27:00;;;;;;;16.93;13.20;;;;;;;16.86;80.75;100873.64;1763200;81;20913;-70
2021/08/25 00:29:28;;;;;;;19.70;13.83;;;;;;;16.84;80.76;100872.93;1763200;81;20932;-69
2021/08/25 00:31:54;;;;;;;22.30;12.53;;;;;;;16.84;80.81;100867.63;1763274;80;21510;-68
2021/08/25 00:34:21;;;;;;;21.30;12.80;;;;;;;16.87;81.01;100861.23;1763383;81;20972;-69
2021/08/25 00:36:48;;;;;;;21.70;13.00;;;;;;;16.89;81.09;100856.16;1763275;80;21379;-70
2021/08/25 00:39:15;;;;;;;15.98;12.45;;;;;;;16.93;81.14;100858.09;1763113;81;20909;-70
2021/08/25 00:41:42;;;;;;;19.57;13.50;;;;;;;16.96;81.14;100852.52;1763334;81;20972;-70
2021/08/25 00:44:12;;;;;;;20.55;13.65;;;;;;;16.99;81.12;100849.63;1763372;81;21477;-69
2021/08/25 00:46:40;;;;;;;18.42;12.28;;;;;;;17.03;81.08;100855.50;1763155;81;21012;-69
2021/08/25 00:49:07;;;;;;;16.42;12.50;;;;;;;17.04;81.12;100846.11;1763469;80;20870;-68
2021/08/25 00:51:34;;;;;;;14.03;11.48;;;;;;;17.06;81.18;100844.66;1763181;81;20881;-69
2021/08/25 00:54:01;;;;;;;16.05;12.20;;;;;;;17.08;81.17;100838.75;1763506;81;20952;-69
2021/08/25 00:56:31;;;;;;;15.00;11.43;;;;;;;17.11;81.17;100843.78;1763204;80;21089;-70
2021/08/25 00:58:58;;;;;;;15.68;12.25;;;;;;;17.14;81.22;100842.19;1713423;81;20992;-70
2021/08/25 01:01:53;;;;;;;17.92;12.18;;;;;;;17.16;81.30;100837.14;1763120;80;20845;-69
2021/08/25 01:04:40;;;;;;;18.95;12.78;;;;;;;17.22;81.37;100839.74;1763391;80;21031;-70
2021/08/25 01:07:09;;;;;;;15.88;11.80;;;;;;;17.28;81.38;100840.55;1763305;81;20913;-69
2021/08/25 01:09:40;;;;;;;16.23;11.57;;;;;;;17.32;81.31;100835.81;1763523;81;21130;-70
2021/08/25 01:12:07;;;;;;;14.40;11.33;;;;;;;17.35;81.15;100835.57;1763178;81;20885;-71
2021/08/25 01:14:35;;;;;;;20.20;11.20;;;;;;;17.36;80.92;100831.48;1763471;81;20929;-70
2021/08/25 01:17:03;;;;;;;12.82;11.40;;;;;;;17.37;80.88;100833.14;1763084;81;20933;-71
2021/08/25 01:19:31;;;;;;;13.98;10.40;;;;;;;17.38;80.79;100833.97;1763508;80;21059;-71
2021/08/25 01:21:58;;;;;;;15.60;11.68;;;;;;;17.36;80.68;100831.48;1763269;80;21801;-68
2021/08/25 01:24:25;;;;;;;15.10;11.90;;;;;;;17.35;80.88;100833.75;1763425;80;20873;-68
2021/08/25 01:26:52;;;;;;;16.42;11.28;;;;;;;17.34;80.91;100828.11;1763185;80;21434;-67
2021/08/25 01:29:25;;;;;;;18.07;12.00;;;;;;;17.34;80.98;100836.06;1763384;80;21007;-68
2021/08/25 01:31:53;;;;;;;13.58;11.12;;;;;;;17.34;81.14;100828.58;1763217;81;20933;-69
2021/08/25 01:34:20;;;;;;;15.13;11.28;;;;;;;17.35;81.25;100831.59;1763124;81;21989;-68
2021/08/25 01:36:52;;;;;;;19.02;11.90;;;;;;;17.34;81.37;100832.09;1763171;81;20932;-69
2021/08/25 01:39:19;;;;;;;12.80;11.40;;;;;;;17.35;81.40;100828.95;1763330;80;20889;-69
2021/08/25 01:41:50;;;;;;;15.55;11.38;;;;;;;17.35;81.43;100825.80;1763374;81;20893;-67
2021/08/25 01:44:17;;;;;;;13.55;11.75;;;;;;;17.37;81.54;100825.68;1763493;80;20874;-68
2021/08/25 01:46:44;;;;;;;16.52;11.33;;;;;;;17.38;81.56;100824.70;1763608;81;21478;-68
2021/08/25 01:49:14;;;;;;;16.95;12.43;;;;;;;17.39;81.55;100824.58;1763423;81;20937;-68
2021/08/25 01:51:42;;;;;;;18.37;13.00;;;;;;;17.39;81.60;100825.06;1763327;81;20981;-68
2021/08/25 01:54:11;;;;;;;17.23;12.68;;;;;;;17.38;81.70;100821.55;1763235;81;20898;-68
2021/08/25 01:56:42;;;;;;;14.60;11.88;;;;;;;17.39;81.69;100821.09;1763341;81;20834;-68
2021/08/25 01:59:09;;;;;;;19.10;12.47;;;;;;;17.39;81.74;100821.09;1763327;81;21378;-68
2021/08/25 02:01:36;;;;;;;15.72;11.75;;;;;;;17.38;81.72;100822.05;1763295;81;20881;-68
2021/08/25 02:04:03;;;;;;;13.93;11.80;;;;;;;17.38;81.77;100816.74;1763386;81;20948;-67
2021/08/25 02:06:30;;;;;;;13.60;11.57;;;;;;;17.36;81.80;100819.55;1763271;81;21003;-67
2021/08/25 02:08:58;;;;;;;14.50;12.28;;;;;;;17.35;81.96;100811.72;1763427;80;20889;-69
2021/08/25 02:11:25;;;;;;;13.80;11.38;;;;;;;17.34;81.99;100812.66;1763251;80;21045;-68
2021/08/25 02:13:53;;;;;;;14.55;11.48;;;;;;;17.36;82.14;100809.41;1763157;81;20980;-68
2021/08/25 02:16:20;;;;;;;16.05;11.55;;;;;;;17.36;82.15;100806.29;1763147;81;21015;-69
2021/08/25 02:18:47;;;;;;;15.23;11.03;;;;;;;17.36;82.13;100813.37;1763199;80;20894;-69
2021/08/25 02:21:14;;;;;;;14.38;11.55;;;;;;;17.35;82.18;100808.57;1763267;80;20932;-68
2021/08/25 02:23:40;;;;;;;16.60;12.07;;;;;;;17.35;82.19;100806.41;1763393;81;21744;-68
2021/08/25 02:26:07;;;;;;;13.08;11.78;;;;;;;17.35;82.27;100808.57;1763151;81;21363;-67
2021/08/25 02:28:35;;;;;;;13.53;12.10;;;;;;;17.35;82.24;100809.89;1763581;81;21351;-68
2021/08/25 02:31:02;;;;;;;18.05;12.23;;;;;;;17.36;82.18;100812.05;1763381;81;20929;-68
2021/08/25 02:33:29;;;;;;;17.48;11.73;;;;;;;17.34;82.20;100809.55;1763216;81;20846;-67
2021/08/25 02:35:57;;;;;;;13.40;11.78;;;;;;;17.34;82.13;100812.66;1763158;81;20936;-68
2021/08/25 02:38:24;;;;;;;15.18;12.23;;;;;;;17.31;82.11;100809.80;1763192;81;20886;-68
2021/08/25 02:40:51;;;;;;;14.20;11.78;;;;;;;17.30;82.15;100809.95;1763428;81;21494;-68
2021/08/25 02:43:18;;;;;;;13.98;12.30;;;;;;;17.29;82.33;100814.88;1763285;80;21035;-67
2021/08/25 02:45:45;;;;;;;14.15;12.07;;;;;;;17.30;82.50;100813.92;1763297;81;21411;-67
2021/08/25 02:48:12;;;;;;;16.17;11.85;;;;;;;17.31;82.57;100815.59;1763224;80;21132;-69
2021/08/25 02:50:41;;;;;;;16.57;12.47;;;;;;;17.34;82.78;100817.97;1763330;80;20921;-68
2021/08/25 02:53:08;;;;;;;17.42;12.37;;;;;;;17.36;82.82;100814.24;1763395;81;20905;-71
2021/08/25 02:55:37;;;;;;;19.30;13.10;;;;;;;17.37;82.68;100812.42;1763241;81;20920;-68
2021/08/25 02:58:05;;;;;;;14.95;12.53;;;;;;;17.43;82.84;100817.67;1763397;80;20929;-69
2021/08/25 03:00:32;;;;;;;16.62;13.40;;;;;;;17.46;82.88;100820.08;1763180;80;21187;-69
2021/08/25 03:03:00;;;;;;;16.65;14.07;;;;;;;17.49;82.88;100817.98;1763202;80;21528;-68
2021/08/25 03:05:26;;;;;;;15.20;13.68;;;;;;;17.53;82.87;100812.77;1763335;81;20920;-68
2021/08/25 03:07:55;;;;;;;15.00;12.15;;;;;;;17.59;82.81;100816.72;1763313;80;20953;-68
2021/08/25 03:10:22;;;;;;;15.75;13.28;;;;;;;17.63;82.79;100814.16;1763301;81;20881;-69
2021/08/25 03:12:51;;;;;;;17.75;13.20;;;;;;;17.68;82.73;100815.92;1763199;81;20921;-69
2021/08/25 03:15:19;;;;;;;14.35;12.20;;;;;;;17.72;82.62;100824.43;1763107;81;20905;-69
2021/08/25 03:17:47;;;;;;;17.73;12.80;;;;;;;17.72;82.37;100825.30;1763413;80;20874;-68
2021/08/25 03:20:13;;;;;;;15.48;12.68;;;;;;;17.75;82.37;100829.00;1763291;81;21001;-68
2021/08/25 03:22:40;;;;;;;19.55;13.85;;;;;;;17.77;82.29;100832.85;1763369;81;21007;-69
2021/08/25 03:25:08;;;;;;;15.90;13.30;;;;;;;17.79;82.24;100831.73;1763382;80;21128;-68
2021/08/25 03:27:35;;;;;;;16.23;14.00;;;;;;;17.83;82.31;100832.82;1763153;81;20920;-68
2021/08/25 03:30:03;;;;;;;16.62;13.20;;;;;;;17.88;82.32;100830.63;1763147;81;21516;-68
2021/08/25 03:32:30;;;;;;;15.10;13.50;;;;;;;17.96;82.30;100836.08;1763202;80;21011;-68
2021/08/25 03:34:57;;;;;;;15.55;13.93;;;;;;;18.04;82.24;100833.60;1763627;81;20984;-69
2021/08/25 03:37:24;;;;;;;18.30;12.35;;;;;;;18.13;82.11;100835.44;1763412;80;21026;-68
2021/08/25 03:39:51;;;;;;;18.52;13.65;;;;;;;18.21;82.09;100836.94;1763230;81;21446;-69
2021/08/25 03:42:18;;;;;;;28.25;15.03;;;;;;;18.28;81.80;100834.57;1763315;81;20928;-69
2021/08/25 03:44:45;;;;;;;14.47;12.23;;;;;;;18.33;81.66;100831.01;1763821;80;20921;-68
2021/08/25 03:47:12;;;;;;;16.48;12.25;;;;;;;18.37;81.47;100835.56;1763138;80;20886;-67
2021/08/25 03:49:39;;;;;;;18.95;13.40;;;;;;;18.42;81.32;100833.33;1763362;81;21037;-68
2021/08/25 03:52:06;;;;;;;18.82;13.38;;;;;;;18.47;81.25;100829.77;1737742;81;20858;-68
2021/08/25 03:54:33;;;;;;;18.90;15.75;;;;;;;18.52;81.30;100828.02;1763469;80;20941;-69
2021/08/25 03:57:00;;;;;;;16.15;13.03;;;;;;;18.58;81.28;100830.13;1763176;81;21008;-69
2021/08/25 03:59:27;;;;;;;17.45;12.55;;;;;;;18.64;81.29;100829.58;1763458;81;21419;-68
2021/08/25 04:01:54;;;;;;;15.40;12.78;;;;;;;18.70;81.23;100837.00;1763109;80;21110;-68
2021/08/25 04:04:21;;;;;;;17.00;14.28;;;;;;;18.76;80.94;100831.10;1763484;81;20929;-68
2021/08/25 04:06:48;;;;;;;16.10;13.35;;;;;;;18.81;80.86;100832.07;1763160;81;20858;-69
2021/08/25 04:09:14;;;;;;;22.85;13.72;;;;;;;18.89;80.91;100833.52;1763556;81;20957;-68
2021/08/25 04:11:41;;;;;;;18.65;13.30;;;;;;;18.94;80.80;100829.97;1763366;81;20984;-67
2021/08/25 04:14:08;;;;;;;22.50;14.28;;;;;;;19.01;80.65;100827.58;1763462;80;21488;-69
2021/08/25 04:16:35;;;;;;;17.65;12.93;;;;;;;19.09;80.61;100835.66;1756265;80;21034;-68
2021/08/25 04:19:04;;;;;;;20.48;14.78;;;;;;;19.16;80.48;100834.11;1746935;80;21443;-67
2021/08/25 04:21:32;;;;;;;26.10;16.05;;;;;;;19.21;80.33;100834.53;1746949;80;20979;-68
2021/08/25 04:23:59;;;;;;;24.37;13.90;;;;;;;19.29;80.19;100836.47;1746901;82;20913;-68
2021/08/25 04:26:25;;;;;;;17.15;13.43;;;;;;;19.39;80.19;100837.80;1746954;82;21133;-68
2021/08/25 04:28:52;;;;;;;18.60;13.25;;;;;;;19.50;80.32;100839.41;1746782;80;20904;-67
2021/08/25 04:31:19;;;;;;;26.57;16.55;;;;;;;19.58;80.37;100823.58;1746853;82;20920;-67
2021/08/25 04:33:46;;;;;;;18.25;13.90;;;;;;;19.68;80.20;100835.03;1746897;82;21363;-68
2021/08/25 04:36:14;;;;;;;23.65;14.28;;;;;;;19.79;79.88;100830.06;1746830;82;20900;-68
2021/08/25 04:38:42;;;;;;;16.48;13.83;;;;;;;19.89;79.72;100834.82;1747143;80;21896;-70
2021/08/25 04:41:10;;;;;;;24.23;16.20;;;;;;;20.00;79.55;100835.95;1746872;80;20916;-69
2021/08/25 04:43:37;;;;;;;27.67;15.23;;;;;;;20.14;79.33;100829.28;1746824;80;20944;-67
2021/08/25 04:46:04;;;;;;;17.42;14.58;;;;;;;20.27;79.09;100829.77;1746837;80;21461;-67
2021/08/25 04:48:31;;;;;;;22.05;13.70;;;;;;;20.46;78.80;100831.48;1746829;80;20932;-69
2021/08/25 04:50:58;;;;;;;26.05;18.50;;;;;;;20.70;78.32;100833.58;1746912;82;21115;-68
2021/08/25 04:53:25;;;;;;;23.98;16.05;;;;;;;20.94;77.10;100828.59;1747091;82;21381;-68
2021/08/25 04:55:52;;;;;;;29.52;19.20;;;;;;;21.19;75.63;100828.27;1746721;80;20925;-69
2021/08/25 04:58:18;;;;;;;22.87;17.05;;;;;;;21.44;74.67;100827.48;1747053;82;21379;-69
2021/08/25 05:00:46;;;;;;;28.17;17.35;;;;;;;21.74;72.54;100826.63;1747045;81;20873;-69
2021/08/25 05:03:14;;;;;;;31.85;18.42;;;;;;;22.15;72.26;100824.13;1746589;80;21154;-69
2021/08/25 05:05:41;;;;;;;35.25;19.27;;;;;;;22.57;70.97;100828.59;1746860;80;20936;-70
2021/08/25 05:08:08;;;;;;;26.73;17.67;;;;;;;23.06;69.48;100823.27;1747068;80;21338;-69
2021/08/25 05:10:36;;;;;;;31.73;19.25;;;;;;;23.62;67.05;100818.47;1746873;80;21505;-69
2021/08/25 05:13:03;;;;;;;40.95;19.55;;;;;;;24.19;66.06;100816.39;1747194;82;20932;-69
2021/08/25 05:15:31;;;;;;;27.48;17.55;;;;;;;24.74;63.89;100819.05;1746680;82;20897;-69
2021/08/25 05:17:58;;;;;;;27.20;16.45;;;;;;;25.28;62.36;100816.26;1749017;80;20885;-68
2021/08/25 05:20:26;;;;;;;28.40;16.40;;;;;;;25.79;59.32;100817.69;1749514;82;20900;-68
2021/08/25 05:22:53;;;;;;;21.02;14.90;;;;;;;26.29;58.69;100815.19;1749684;82;21401;-69
2021/08/25 05:25:20;;;;;;;23.80;14.78;;;;;;;26.73;56.97;100812.86;1749498;80;20991;-69
2021/08/25 05:27:47;;;;;;;23.22;14.47;;;;;;;27.17;54.63;100817.63;1749729;82;21569;-70
2021/08/25 05:31:06;;;;;;;20.88;14.93;;;;;;;27.54;53.43;100805.67;1797604;79;22382;-69
2021/08/25 05:33:33;;;;;;;19.73;14.13;;;;;;;27.53;53.02;100812.11;1758405;80;20869;-69
2021/08/25 05:36:00;;;;;;;24.10;14.83;;;;;;;27.40;52.82;100808.82;1758229;80;21129;-69
2021/08/25 05:38:27;;;;;;;20.80;13.65;;;;;;;27.25;53.09;100800.84;1758109;81;20876;-69
2021/08/25 05:40:55;;;;;;;19.65;13.85;;;;;;;27.07;54.17;100810.73;1758617;80;20888;-69
2021/08/25 05:43:22;;;;;;;20.37;15.38;;;;;;;26.90;54.70;100808.53;1758105;81;20952;-68
2021/08/25 05:45:49;;;;;;;20.77;13.30;;;;;;;26.73;55.31;100817.41;1758186;80;20880;-69
2021/08/25 05:48:16;;;;;;;18.67;13.70;;;;;;;26.53;54.54;100811.81;1758285;80;21125;-69
2021/08/25 05:50:43;;;;;;;17.40;12.93;;;;;;;26.39;55.84;100812.17;1758507;81;21496;-68
2021/08/25 05:53:10;;;;;;;17.27;12.47;;;;;;;26.51;54.91;100813.86;1758174;80;20856;-69
2021/08/25 05:55:38;;;;;;;16.57;12.40;;;;;;;26.82;55.86;100802.27;1758782;80;21294;-69
2021/08/25 05:58:05;;;;;;;18.62;13.62;;;;;;;27.14;55.10;100801.88;1758263;81;21393;-70
2021/08/25 06:00:32;;;;;;;17.23;12.78;;;;;;;27.57;55.03;100808.48;1758635;80;20964;-71
2021/08/25 06:02:59;;;;;;;21.42;14.35;;;;;;;28.05;53.91;100806.64;1758200;80;21423;-71
2021/08/25 06:05:26;;;;;;;20.70;12.58;;;;;;;28.57;52.19;100802.11;1758429;80;20936;-68
2021/08/25 06:07:53;;;;;;;21.73;13.58;;;;;;;28.97;51.27;100804.32;1758252;81;20885;-71
2021/08/25 06:10:20;;;;;;;15.45;11.57;;;;;;;29.33;50.38;100803.87;1758543;80;20865;-69
2021/08/25 06:12:49;;;;;;;15.20;8.83;;;;;;;29.61;49.31;100796.51;1758266;80;21370;-70
2021/08/25 06:15:15;;;;;;;16.57;7.25;;;;;;;29.98;48.37;100804.39;1758291;80;21433;-70
2021/08/25 06:17:42;;;;;;;7.65;5.40;;;;;;;30.28;46.55;100795.70;1758241;81;20979;-69
2021/08/25 06:20:11;;;;;;;10.53;6.10;;;;;;;30.53;43.85;100803.35;1758201;80;20939;-70
2021/08/25 06:22:38;;;;;;;10.32;5.90;;;;;;;30.79;42.46;100797.41;1758537;80;21397;-69
2021/08/25 06:25:08;;;;;;;9.23;6.33;;;;;;;31.04;41.95;100802.00;1758334;80;21510;-72
2021/08/25 06:27:36;;;;;;;8.25;6.37;;;;;;;31.15;41.20;100796.70;1758256;81;20975;-68
2021/08/25 06:30:04;;;;;;;11.25;5.60;;;;;;;31.27;40.30;100794.06;1752311;81;20999;-69
2021/08/25 06:32:31;;;;;;;6.80;6.12;;;;;;;31.38;40.24;100796.56;1745160;82;20877;-71
2021/08/25 06:34:58;;;;;;;8.70;6.00;;;;;;;31.66;39.53;100789.80;1745271;82;20889;-68
2021/08/25 06:37:24;;;;;;;8.48;5.92;;;;;;;32.05;39.22;100793.91;1745414;82;21183;-68
2021/08/25 06:39:52;;;;;;;7.45;6.40;;;;;;;32.50;38.37;100788.54;1744993;80;21981;-68
2021/08/25 06:42:18;;;;;;;10.48;6.50;;;;;;;32.79;37.83;100788.19;1744474;81;20979;-68
2021/08/25 06:44:45;;;;;;;8.65;5.33;;;;;;;33.05;37.65;100792.33;1744584;82;20909;-69
2021/08/25 06:47:12;;;;;;;10.08;5.75;;;;;;;33.17;37.41;100791.84;1744563;81;21577;-69
2021/08/25 06:49:39;;;;;;;7.00;5.97;;;;;;;33.39;37.11;100799.34;1744592;81;21548;-69
2021/08/25 06:52:06;;;;;;;6.58;4.90;;;;;;;33.58;36.63;100793.23;1744545;81;20889;-68
2021/08/25 06:54:33;;;;;;;9.35;4.87;;;;;;;33.67;36.14;100787.73;1744469;81;20917;-68
2021/08/25 06:57:00;;;;;;;8.58;5.15;;;;;;;33.67;35.96;100794.53;1744575;82;20897;-68
2021/08/25 06:59:27;;;;;;;7.70;5.37;;;;;;;33.53;36.01;100807.55;1744532;82;20857;-69
2021/08/25 07:01:55;;;;;;;7.65;5.28;;;;;;;33.29;36.27;100802.69;1744650;80;21466;-69
2021/08/25 07:04:21;;;;;;;5.87;5.33;;;;;;;32.99;36.56;100807.68;1744450;81;21371;-68
2021/08/25 07:06:50;;;;;;;8.95;5.28;;;;;;;32.66;37.35;100804.70;1744633;81;20909;-70
2021/08/25 07:09:18;;;;;;;8.38;5.37;;;;;;;32.39;37.45;100801.02;1744445;82;20936;-69
2021/08/25 07:11:45;;;;;;;7.42;4.58;;;;;;;32.19;37.77;100802.67;1744780;81;20965;-71
2021/08/25 07:14:11;;;;;;;8.08;5.67;;;;;;;32.06;37.85;100801.00;1744464;81;21366;-70
2021/08/25 07:16:39;;;;;;;15.80;5.20;;;;;;;31.97;37.88;100801.00;1744590;80;20917;-72
2021/08/25 07:19:06;;;;;;;8.15;4.58;;;;;;;31.94;38.05;100800.08;1744822;81;21441;-71
2021/08/25 07:21:33;;;;;;;7.28;4.97;;;;;;;31.92;38.53;100801.66;1745055;81;20940;-81
2021/08/25 07:24:00;;;;;;;6.72;5.22;;;;;;;31.90;38.21;100803.77;1744982;81;21568;-79
2021/08/25 07:26:27;;;;;;;9.28;4.20;;;;;;;31.98;37.66;100799.95;1745218;82;21766;-79
2021/08/25 07:28:55;;;;;;;6.87;4.65;;;;;;;32.23;37.44;100790.84;1743756;81;20929;-82
2021/08/25 07:31:22;;;;;;;6.03;3.65;;;;;;;32.62;37.34;100794.86;1743116;81;20936;-87
2021/08/25 07:33:49;;;;;;;9.53;4.12;;;;;;;33.10;37.13;100793.83;1743057;81;21000;-83
2021/08/25 07:36:16;;;;;;;7.22;3.90;;;;;;;33.58;36.56;100792.72;1743989;81;20913;-81
2021/08/25 07:38:43;;;;;;;5.62;3.60;;;;;;;33.97;34.17;100795.67;1744916;81;21104;-85
2021/08/25 07:41:10;;;;;;;6.17;3.85;;;;;;;34.21;33.38;100792.85;1745380;81;20885;-85
2021/08/25 07:43:37;;;;;;;8.23;4.17;;;;;;;34.40;33.18;100797.55;1745015;81;20905;-85
2021/08/25 07:46:04;;;;;;;8.33;4.47;;;;;;;34.52;33.68;100803.73;1744910;81;20956;-83
2021/08/25 07:48:31;;;;;;;5.58;3.60;;;;;;;34.74;33.41;100803.85;1745010;81;20909;-86
2021/08/25 07:51:00;;;;;;;7.83;3.87;;;;;;;34.99;32.88;100806.67;1745210;81;21134;-86
2021/08/25 07:53:26;;;;;;;8.15;5.15;;;;;;;35.14;32.57;100802.84;1745694;81;20933;-81
2021/08/25 07:55:54;;;;;;;7.20;4.33;;;;;;;35.08;32.49;100791.53;1745740;81;20984;-80
2021/08/25 07:58:21;;;;;;;5.40;4.15;;;;;;;34.83;32.81;100806.98;1745011;81;20932;-83
2021/08/25 08:00:48;;;;;;;7.42;4.10;;;;;;;34.60;33.44;100797.89;1745087;81;20889;-83
2021/08/25 08:03:15;;;;;;;5.83;4.72;;;;;;;34.36;34.05;100801.30;1745121;82;21068;-80
2021/08/25 08:05:44;;;;;;;6.75;4.50;;;;;;;34.06;34.60;100798.30;1745418;80;20941;-87
2021/08/25 08:08:12;;;;;;;7.15;4.87;;;;;;;33.80;34.81;100794.25;1745155;81;20925;-83
2021/08/25 08:10:39;;;;;;;7.37;4.62;;;;;;;33.57;35.46;100803.30;1745204;81;20897;-85
2021/08/25 08:13:07;;;;;;;8.60;5.15;;;;;;;33.37;35.70;100799.61;1744993;81;20881;-83
2021/08/25 08:15:37;;;;;;;6.22;4.53;;;;;;;33.30;35.94;100800.79;1745034;81;20940;-84
2021/08/25 08:18:10;;;;;;;6.28;5.28;;;;;;;33.39;36.30;100800.70;1745148;81;20972;-86
2021/08/25 08:20:37;;;;;;;12.28;5.95;;;;;;;33.67;35.87;100785.55;1745729;81;20972;-82
2021/08/25 08:23:04;;;;;;;8.15;4.45;;;;;;;34.03;35.16;100788.41;1743752;81;20964;-81
2021/08/25 08:25:31;;;;;;;4.87;4.37;;;;;;;34.40;34.53;100793.47;1743235;80;21008;-82
2021/08/25 08:27:58;;;;;;;7.03;4.53;;;;;;;34.76;33.44;100785.90;1743996;81;21053;-84
2021/08/25 08:30:25;;;;;;;7.08;4.92;;;;;;;35.07;33.63;100787.17;1744529;80;21513;-82
2021/08/25 08:32:52;;;;;;;10.72;5.80;;;;;;;35.37;33.25;100789.50;1744536;80;20976;-80
2021/08/25 08:35:19;;;;;;;8.25;4.78;;;;;;;35.59;32.57;100780.50;1744646;81;20901;-80
2021/08/25 08:37:46;;;;;;;7.60;4.85;;;;;;;35.84;32.61;100778.10;1744854;81;20881;-80
2021/08/25 08:40:14;;;;;;;5.75;4.67;;;;;;;36.12;32.37;100774.03;1744746;81;21080;-74
2021/08/25 08:42:43;;;;;;;5.15;4.17;;;;;;;36.34;32.71;100778.87;1744622;81;20979;-79
2021/08/25 08:45:10;;;;;;;8.05;5.08;;;;;;;36.56;32.17;100784.24;1744631;82;21387;-76
2021/08/25 08:47:37;;;;;;;6.78;4.50;;;;;;;36.79;31.52;100774.05;1744513;82;21375;-77
2021/08/25 08:50:05;;;;;;;6.08;4.10;;;;;;;36.93;31.49;100776.06;1744695;81;20976;-78
2021/08/25 08:52:32;;;;;;;6.28;4.22;;;;;;;37.08;30.92;100768.50;1744672;81;21116;-78
2021/08/25 08:54:59;;;;;;;4.05;3.62;;;;;;;37.18;31.05;100760.91;1744427;81;20928;-77
2021/08/25 08:57:26;;;;;;;5.85;4.40;;;;;;;37.19;30.52;100762.53;1744662;81;20873;-79
2021/08/25 08:59:53;;;;;;;10.45;3.85;;;;;;;37.22;30.14;100764.76;1744544;81;21011;-79
2021/08/25 09:02:44;;;;;;;4.42;3.72;;;;;;;37.18;30.52;100766.92;1744827;81;20905;-79
2021/08/25 09:05:23;;;;;;;4.22;3.83;;;;;;;37.10;30.20;100761.41;1744709;80;21132;-81
2021/08/25 09:08:00;;;;;;;7.15;4.10;;;;;;;36.99;30.79;100755.02;1744827;81;20889;-82
2021/08/25 09:10:33;;;;;;;4.50;4.10;;;;;;;36.82;30.50;100749.75;1744476;81;21456;-80
2021/08/25 09:13:02;;;;;;;5.42;4.12;;;;;;;36.60;30.92;100742.23;1745072;82;20952;-78
2021/08/25 09:15:33;;;;;;;4.87;4.05;;;;;;;36.32;31.15;100737.33;1744778;81;20889;-76
2021/08/25 09:18:14;;;;;;;5.35;3.90;;;;;;;35.95;30.90;100735.87;1744682;81;21136;-78
2021/08/25 09:20:46;;;;;;;5.00;4.58;;;;;;;35.62;30.85;100738.56;1744776;81;20885;-78
2021/08/25 09:23:18;;;;;;;6.05;4.40;;;;;;;35.33;30.62;100735.20;1744904;81;20992;-82
2021/08/25 09:25:49;;;;;;;5.58;3.87;;;;;;;35.25;30.44;100737.00;1744760;81;20987;-87
2021/08/25 09:28:18;;;;;;;8.13;5.60;;;;;;;35.28;30.56;100731.03;1744464;80;20968;-87
2021/08/25 09:30:56;;;;;;;5.65;4.00;;;;;;;35.39;30.42;100727.34;1744843;80;21772;-88
2021/08/25 09:33:27;;;;;;;7.95;4.70;;;;;;;35.61;30.33;100726.50;1745000;81;21003;-87
2021/08/25 09:35:58;;;;;;;4.87;4.37;;;;;;;35.79;30.04;100725.36;1744588;81;20865;-88
2021/08/25 09:38:27;;;;;;;10.82;4.25;;;;;;;35.94;29.73;100727.42;1744621;81;20933;-85
2021/08/25 09:41:04;;;;;;;5.72;4.05;;;;;;;35.95;29.17;100722.23;1744613;81;20956;-86
2021/08/25 09:43:44;;;;;;;7.78;4.55;;;;;;;35.93;29.17;100721.66;1744775;81;20956;-85
2021/08/25 09:46:25;;;;;;;5.92;4.22;;;;;;;36.06;29.24;100722.60;1745004;81;21027;-80
2021/08/25 09:48:57;;;;;;;5.83;4.22;;;;;;;36.15;29.79;100717.52;1744544;81;21291;-76
2021/08/25 09:51:39;;;;;;;6.17;5.17;;;;;;;36.29;30.04;100718.20;1744799;81;21055;-81
2021/08/25 09:54:10;;;;;;;5.70;4.80;;;;;;;36.35;29.56;100719.05;1744644;81;20889;-82
2021/08/25 09:56:41;;;;;;;9.90;4.47;;;;;;;36.43;29.50;100715.02;1744813;81;21173;-83
2021/08/25 09:59:10;;;;;;;5.53;3.95;;;;;;;36.34;29.81;100707.84;1744484;81;20881;-81
2021/08/25 10:01:37;;;;;;;4.78;3.72;;;;;;;36.28;29.53;100711.07;1744504;81;20956;-81
2021/08/25 10:04:06;;;;;;;7.83;4.72;;;;;;;36.24;30.25;100713.22;1744447;82;20917;-82
2021/08/25 10:06:39;;;;;;;8.78;3.80;;;;;;;36.26;29.84;100713.79;1744889;81;21078;-79
2021/08/25 10:09:08;;;;;;;;;;;;;;;36.33;29.27;100703.48;1747126;81;21130;-80
2021/08/25 10:11:38;;;;;;;4.78;3.67;;;;;;;36.16;29.81;100705.53;1743646;81;20081;-79
2021/08/25 10:14:10;;;;;;;5.17;4.15;;;;;;;35.95;29.84;100704.48;1744461;80;20934;-80
2021/08/25 10:16:48;;;;;;;5.50;3.92;;;;;;;35.85;29.93;100714.78;1744637;81;20858;-80
2021/08/25 10:19:36;;;;;;;18.07;4.70;;;;;;;35.57;29.77;100709.81;1744505;80;20980;-81
2021/08/25 10:22:17;;;;;;;4.33;3.65;;;;;;;35.56;29.70;100702.72;1744634;81;21145;-80
2021/08/25 10:24:59;;;;;;;87.82;9.18;;;;;;;35.56;29.75;100699.17;1744661;80;20972;-81
2021/08/25 10:27:32;;;;;;;3.98;3.60;;;;;;;35.70;29.85;100700.43;1744453;81;20834;-82
2021/08/25 10:30:15;;;;;;;8.28;3.37;;;;;;;35.95;29.75;100700.39;1744653;81;20869;-79
2021/08/25 10:33:03;;;;;;;4.25;3.60;;;;;;;35.96;29.32;100692.50;1744617;82;20936;-79
2021/08/25 10:35:31;;;;;;;3.75;3.40;;;;;;;35.77;29.16;100698.31;1744695;82;21406;-78
2021/08/25 10:38:21;;;;;;;4.15;3.62;;;;;;;35.64;29.37;100691.91;1744847;81;20940;-78
2021/08/25 10:40:49;;;;;;;6.33;3.77;;;;;;;35.39;29.38;100689.70;1737226;80;20854;-79
2021/08/25 10:43:38;;;;;;;5.08;3.98;;;;;;;35.06;29.53;100695.03;1744794;80;21470;-80
2021/08/25 10:46:06;;;;;;;8.33;4.03;;;;;;;34.77;30.28;100695.71;1745053;80;21481;-81
2021/08/25 10:48:38;;;;;;;5.40;3.95;;;;;;;34.44;30.73;100696.05;1744800;81;21121;-80
2021/08/25 10:51:05;;;;;;;5.53;3.98;;;;;;;34.16;30.88;100690.14;1745242;81;20885;-80
2021/08/25 10:53:35;;;;;;;4.95;3.92;;;;;;;33.88;31.22;100696.43;1744807;81;21027;-80
2021/08/25 10:56:15;;;;;;;6.17;3.92;;;;;;;33.58;31.40;100688.52;1734291;82;20936;-77
2021/08/25 10:58:47;;;;;;;6.15;3.62;;;;;;;33.50;31.61;100688.91;1744546;81;21308;-80
2021/08/25 11:01:32;;;;;;;6.95;3.80;;;;;;;33.55;31.10;100682.19;1744783;81;20869;-79
2021/08/25 11:04:02;;;;;;;7.05;3.35;;;;;;;33.71;30.44;100671.11;1744836;81;20924;-78
2021/08/25 11:06:39;;;;;;;6.50;4.12;;;;;;;33.74;29.99;100665.98;1743556;81;20944;-80
2021/08/25 11:09:11;;;;;;;11.53;4.45;;;;;;;33.90;30.07;100673.88;1744702;81;20916;-78
2021/08/25 11:11:38;;;;;;;3.60;3.30;;;;;;;34.09;29.55;100669.05;1745013;81;21362;-78
2021/08/25 11:14:05;;;;;;;4.90;3.92;;;;;;;34.29;29.36;100663.13;1744635;81;21137;-80
2021/08/25 11:16:32;;;;;;;4.58;4.12;;;;;;;34.27;29.55;100659.83;1744878;81;20841;-79
2021/08/25 11:18:59;;;;;;;6.85;3.70;;;;;;;34.16;29.19;100653.39;1744783;81;20921;-78
2021/08/25 11:21:25;;;;;;;5.65;3.75;;;;;;;33.97;29.71;100652.80;1744930;82;20967;-78
2021/08/25 11:23:54;;;;;;;4.15;3.75;;;;;;;33.75;29.67;100652.70;1744541;81;20913;-76